Latest Weather Observations for Julia Creek

IDQ60801

Issued at 4:32 pm EST Wednesday 26 July 2017 (issued every 30 minutes, with the page automatically refreshed every 10 minutes)

About weather observations | Map of weather stations | Latest weather observations for QLD | Other Formats
Station Details ID: 029058 Name: JULIA CREEK AIRPORT Lat: -20.67 Lon: 141.72 Height: 122.5 m
Data from the previous 72 hours. | See also: Recent months at Julia Creek
Date/Time
EST
Temp
°C
App
Temp
°C
Dew
Point
°C
Rel
Hum
%
Delta-T
°C
Wind Press
QNH
hPa
Press
MSL
hPa
Rain since
9am
mm
Dir  Spd
km/h
Gust
km/h
Spd
kts
Gust
kts
26/04:30pm 28.8 22.2 -0.4 15 13.8 ESE 24 37 13 20 1017.0 1016.7 0.0
26/04:00pm 29.0 22.6 0.7 16 13.6 ESE 24 37 13 20 1017.1 1016.9 0.0
26/03:30pm 29.1 22.9 2.4 18 13.3 ESE 24 37 13 20 1017.1 1016.9 0.0
26/03:00pm 29.7 24.1 1.2 16 13.9 E 20 32 11 17 1017.2 1017.0 0.0
26/02:30pm 29.0 21.9 1.5 17 13.5 ESE 28 41 15 22 1017.4 1017.2 0.0
26/02:00pm 28.7 22.5 2.1 18 13.1 ESE 24 37 13 20 1017.7 1017.5 0.0
26/01:30pm 29.1 22.9 2.4 18 13.3 SE 24 35 13 19 1018.2 1018.0 0.0
26/01:00pm 28.9 22.7 2.2 18 13.2 SE 24 39 13 21 1018.6 1018.4 0.0
26/12:30pm 28.2 22.2 3.1 20 12.6 SE 24 35 13 19 1019.2 1019.0 0.0
26/12:00pm 28.0 21.9 5.0 23 11.9 ESE 26 43 14 23 1019.8 1019.6 0.0
26/11:30am 27.2 21.5 6.6 27 10.9 ESE 26 37 14 20 1020.1 1019.9 0.0
26/11:00am 26.1 20.9 7.2 30 10.0 E 24 35 13 19 1020.4 1020.2 0.0
26/10:30am 25.3 19.6 8.3 34 9.2 E 28 37 15 20 1020.4 1020.2 0.0
26/10:00am 24.5 20.4 8.5 36 8.6 E 20 30 11 16 1020.6 1020.4 0.0
26/09:30am 22.3 18.1 8.1 40 7.5 E 20 28 11 15 1020.4 1020.2 0.0
26/08:30am 16.8 12.2 3.5 41 6.2 ESE 17 22 9 12 1020.0 1019.8 0.0
26/08:00am 14.3 10.0 1.2 41 5.7 SE 13 17 7 9 1019.9 1019.7 0.0
26/07:30am 12.8 8.5 0.9 44 5.1 SE 13 17 7 9 1019.6 1019.4 0.0
26/07:00am 11.3 7.2 0.1 46 4.6 SE 11 13 6 7 1019.4 1019.2 0.0
26/06:30am 11.6 7.9 -0.2 44 4.8 SE 9 11 5 6 1019.0 1018.8 0.0
26/06:00am 12.0 7.5 -0.2 43 5.0 SE 13 13 7 7 1018.7 1018.5 0.0
26/05:30am 12.1 8.0 -0.1 43 5.0 SE 11 13 6 7 1018.3 1018.1 0.0
26/05:00am 12.5 8.4 -0.4 41 5.3 SE 11 13 6 7 1018.0 1017.8 0.0
26/04:30am 13.1 9.0 -0.5 39 5.6 SE 11 13 6 7 1018.0 1017.8 0.0
26/04:00am 13.9 9.4 -0.5 37 6.0 SE 13 15 7 8 1017.9 1017.7 0.0
26/03:30am 14.8 9.9 -0.5 35 6.4 SE 15 19 8 10 1017.8 1017.6 0.0
26/03:00am 15.3 10.4 -0.4 34 6.6 SE 15 20 8 11 1017.7 1017.5 0.0
26/02:30am 15.7 10.4 -0.9 32 7.0 SE 17 22 9 12 1017.7 1017.5 0.0
26/02:00am 15.6 10.2 -1.0 32 6.9 SE 17 20 9 11 1017.9 1017.7 0.0
26/01:30am 16.1 10.7 -1.0 31 7.2 SSE 17 20 9 11 1018.0 1017.8 0.0
26/01:00am 16.6 10.9 -1.0 30 7.4 SE 19 20 10 11 1018.1 1017.9 0.0
26/12:30am 16.6 11.4 -0.1 32 7.2 SSE 17 19 9 10 1018.1 1017.9 0.0
26/12:00am 16.5 11.8 0.6 34 6.9 SSE 15 19 8 10 1018.3 1018.1 0.0
 
Date/Time
EST
Temp
°C
App
Temp
°C
Dew
Point
°C
Rel
Hum
%
Delta-T
°C
Wind Press
QNH
hPa
Press
MSL
hPa
Rain since
9am
mm
Dir  Spd
km/h
Gust
km/h
Spd
kts
Gust
kts
25/11:30pm 16.6 12.4 1.5 36 6.7 SSE 13 17 7 9 1018.6 1018.4 0.0
25/11:00pm 17.0 12.8 1.8 36 6.8 SSE 13 15 7 8 1018.6 1018.4 0.0
25/10:30pm 17.1 12.9 1.9 36 6.9 SSE 13 15 7 8 1018.6 1018.4 0.0
25/10:00pm 18.5 14.1 2.8 35 7.3 SE 15 17 8 9 1018.5 1018.3 0.0
25/09:30pm 18.1 13.8 3.2 37 7.0 SSE 15 19 8 10 1018.4 1018.2 0.0
25/09:00pm 18.1 14.2 3.2 37 6.9 SSE 13 15 7 8 1018.3 1018.1 0.0
25/08:30pm 19.4 15.2 4.0 36 7.4 SSE 15 17 8 9 1018.2 1018.0 0.0
25/08:00pm 20.4 16.6 4.0 34 7.9 SE 13 15 7 8 1017.9 1017.7 0.0
25/07:30pm 21.5 17.9 5.0 34 8.2 SSE 13 17 7 9 1017.4 1017.2 0.0
25/07:00pm 22.6 18.6 5.1 32 8.7 SSE 15 17 8 9 1017.0 1016.7 0.0
25/06:30pm 23.9 20.6 4.8 29 9.6 SSE 11 13 6 7 1016.8 1016.5 0.0
25/06:00pm 26.7 23.0 6.2 27 10.7 SE 15 22 8 12 1016.4 1016.1 0.0
25/05:30pm 28.1 23.9 5.6 24 11.8 SE 17 24 9 13 1016.2 1015.9 0.0
25/05:00pm 28.6 24.4 5.5 23 12.1 SSE 17 26 9 14 1016.1 1015.8 0.0
25/04:30pm 29.4 25.3 6.1 23 12.4 SE 17 26 9 14 1016.0 1015.7 0.0
25/04:00pm 29.1 24.9 5.9 23 12.2 SE 17 24 9 13 1016.0 1015.7 0.0
25/03:30pm 29.3 25.3 4.7 21 12.7 SSE 15 24 8 13 1016.2 1015.9 0.0
25/03:00pm 29.7 25.1 5.7 22 12.7 SSE 19 30 10 16 1016.4 1016.1 0.0
25/02:30pm 29.3 25.0 5.4 22 12.5 SSE 17 28 9 15 1016.7 1016.4 0.0
25/02:00pm 29.1 24.6 5.9 23 12.2 SE 19 30 10 16 1017.0 1016.7 0.0
25/01:30pm 29.5 25.3 5.6 22 12.6 SE 17 26 9 14 1017.6 1017.4 0.0
25/01:00pm 29.3 24.5 4.7 21 12.7 SE 19 32 10 17 1018.2 1018.0 0.0
25/12:30pm 28.6 24.2 6.7 25 11.7 SE 19 28 10 15 1018.8 1018.6 0.0
25/12:00pm 28.1 24.1 6.8 26 11.3 SE 17 24 9 13 1019.3 1019.1 0.0
25/11:30am 27.8 23.1 7.6 28 10.9 ESE 22 33 12 18 1019.8 1019.6 0.0
25/11:00am 27.2 23.0 8.1 30 10.3 E 20 30 11 16 1020.1 1019.9 0.0
25/10:30am 26.4 22.5 9.3 34 9.4 ESE 20 24 11 13 1020.4 1020.2 0.0
25/10:00am 25.1 21.4 10.2 39 8.3 E 20 28 11 15 1020.5 1020.3 0.0
25/09:30am 23.1 20.0 10.2 44 7.1 ESE 17 22 9 12 1020.5 1020.3 0.0
25/09:00am 21.2 18.2 9.1 46 6.4 ESE 15 20 8 11 1020.3 1020.1 0.0
25/08:30am 17.8 14.5 6.3 47 5.7 ESE 13 17 7 9 1020.1 1019.9 0.0
25/08:00am 15.2 12.0 4.9 50 4.9 SE 11 15 6 8 1019.9 1019.7 0.0
25/07:30am 12.3 8.8 3.3 54 4.0 SE 11 13 6 7 1019.6 1019.4 0.0
25/07:00am 11.7 7.7 3.0 55 3.8 SE 13 13 7 7 1019.4 1019.2 0.0
25/06:30am 12.1 8.9 2.8 53 4.1 SE 9 11 5 6 1019.1 1018.9 0.0
25/06:00am 13.4 9.5 3.5 51 4.5 SE 13 15 7 8 1018.7 1018.5 0.0
25/05:30am 14.3 10.1 3.7 49 4.8 SE 15 17 8 9 1018.4 1018.2 0.0
25/05:00am 14.5 10.6 3.6 48 5.0 SE 13 17 7 9 1018.2 1018.0 0.0
25/04:30am 15.6 11.4 4.0 46 5.4 SE 15 19 8 10 1018.0 1017.8 0.0
25/04:00am 16.0 11.5 4.1 45 5.6 SE 17 20 9 11 1017.7 1017.5 0.0
25/03:30am 16.3 11.8 4.0 44 5.8 SE 17 20 9 11 1017.7 1017.5 0.0
25/03:00am 16.2 11.6 3.6 43 5.8 SE 17 20 9 11 1017.7 1017.5 0.0
25/02:30am 16.6 12.1 4.0 43 5.9 SE 17 20 9 11 1017.6 1017.4 0.0
25/02:00am 16.4 12.1 3.5 42 6.0 SE 15 19 8 10 1017.7 1017.5 0.0
25/01:30am 16.9 12.7 3.6 41 6.2 SSE 15 17 8 9 1017.7 1017.5 0.0
25/01:00am 17.5 13.2 3.4 39 6.6 SE 15 19 8 10 1017.9 1017.7 0.0
25/12:30am 18.5 13.8 3.2 36 7.2 SE 17 19 9 10 1017.8 1017.6 0.0
25/12:00am 19.1 14.4 3.3 35 7.4 SE 17 20 9 11 1017.7 1017.5 0.0
 
Date/Time
EST
Temp
°C
App
Temp
°C
Dew
Point
°C
Rel
Hum
%
Delta-T
°C
Wind Press
QNH
hPa
Press
MSL
hPa
Rain since
9am
mm
Dir  Spd
km/h
Gust
km/h
Spd
kts
Gust
kts
24/11:30pm 20.1 15.0 2.9 32 8.1 SE 19 24 10 13 1018.0 1017.8 0.0
24/11:00pm 20.5 15.4 2.8 31 8.3 SSE 19 24 10 13 1018.0 1017.8 0.0
24/10:30pm 20.7 15.9 2.5 30 8.5 SSE 17 20 9 11 1017.9 1017.7 0.0
24/10:00pm 21.2 16.4 2.5 29 8.8 SSE 17 20 9 11 1017.7 1017.5 0.0
24/09:30pm 21.9 16.7 2.6 28 9.2 SSE 19 22 10 12 1017.6 1017.4 0.0
24/09:00pm 22.1 17.0 2.8 28 9.2 SSE 19 22 10 12 1017.3 1017.1 0.0
24/08:30pm 22.2 17.8 2.8 28 9.3 SSE 15 19 8 10 1017.0 1016.7 0.0
24/08:00pm 23.4 18.7 3.4 27 9.7 SSE 17 19 9 10 1016.7 1016.4 0.0
24/07:30pm 22.7 18.5 3.8 29 9.2 SSE 15 17 8 9 1016.3 1016.0 0.0
24/07:00pm 23.4 19.6 3.9 28 9.6 SSE 13 15 7 8 1015.9 1015.6 0.0
24/06:30pm 25.1 21.8 4.3 26 10.4 SSE 11 13 6 7 1015.5 1015.2 0.0
24/06:00pm 28.3 24.5 5.8 24 11.8 SSE 15 19 8 10 1015.1 1014.8 0.0
24/05:30pm 29.7 25.9 5.7 22 12.7 SE 15 20 8 11 1014.8 1014.5 0.0
24/05:00pm 30.3 26.6 6.2 22 12.9 SE 15 19 8 10 1014.7 1014.4 0.0
24/04:30pm 30.8 27.0 6.0 21 13.2 SSE 15 24 8 13 1014.7 1014.4 0.0
24/04:00pm 31.5 27.7 5.8 20 13.7 SE 15 22 8 12 1014.7 1014.4 0.0
24/03:30pm 32.0 27.9 6.2 20 13.9 SE 17 26 9 14 1014.7 1014.4 0.0
24/03:00pm 31.4 27.7 6.5 21 13.4 ESE 15 30 8 16 1014.9 1014.6 0.0
24/02:30pm 30.7 27.6 7.2 23 12.8 SE 13 19 7 10 1015.3 1015.0 0.0
24/02:00pm 30.7 28.2 8.4 25 12.4 ESE 11 19 6 10 1015.7 1015.4 0.0
24/01:30pm 30.4 28.6 9.3 27 11.9 SE 9 17 5 9 1016.3 1016.0 0.0
24/01:00pm 29.7 27.9 9.3 28 11.4 ESE 9 19 5 10 1016.9 1016.6 0.0
24/12:30pm 28.8 27.5 10.0 31 10.6 SE 7 15 4 8 1017.4 1017.2 0.0
24/12:00pm 28.2 27.0 10.4 33 10.1 E 7 15 4 8 1018.2 1018.0 0.0
24/11:30am 27.4 25.5 10.6 35 9.5 E 11 19 6 10 1018.8 1018.6 0.0
24/11:00am 26.8 25.0 10.9 37 9.0 E 11 20 6 11 1019.3 1019.1 0.0
24/10:30am 25.5 22.8 10.5 39 8.4 ESE 15 22 8 12 1019.6 1019.4 0.0
24/10:00am 23.9 20.7 9.9 41 7.7 E 17 24 9 13 1019.6 1019.4 0.0
24/09:30am 21.3 17.0 7.2 40 7.3 ESE 19 22 10 12 1019.6 1019.4 0.0
24/09:00am 19.3 14.5 5.4 40 6.8 ESE 20 26 11 14 1019.3 1019.1 0.0
24/08:30am 17.4 12.3 4.0 41 6.3 SE 20 33 11 18 1019.1 1018.9 0.0
24/08:00am 15.3 10.5 2.5 42 5.7 SE 17 22 9 12 1018.8 1018.6 0.0
24/07:30am 13.5 9.3 1.5 44 5.2 SE 13 17 7 9 1018.3 1018.1 0.0
24/07:00am 13.8 9.2 1.8 44 5.2 SE 15 17 8 9 1018.0 1017.8 0.0
24/06:30am 14.1 9.9 1.7 43 5.4 SSE 13 19 7 10 1017.7 1017.5 0.0
24/06:00am 14.9 10.0 2.1 42 5.7 SSE 17 20 9 11 1017.2 1017.0 0.0
24/05:30am 15.5 10.6 2.0 40 6.0 SSE 17 22 9 12 1016.7 1016.4 0.0
24/05:00am 16.2 10.7 1.9 38 6.4 SSE 20 28 11 15 1016.6 1016.3 0.0
24/04:30am 14.6 9.6 1.2 40 5.8 SSE 17 20 9 11 1016.5 1016.2 0.0
24/04:00am 14.2 9.4 0.5 39 5.8 SSE 15 19 8 10 1016.5 1016.2 0.0
24/03:30am 14.5 9.3 0.4 38 6.0 S 17 20 9 11 1016.5 1016.2 0.0
24/03:00am 15.0 9.8 0.4 37 6.2 SSE 17 19 9 10 1016.6 1016.3 0.0
24/02:30am 15.0 10.3 0.8 38 6.1 SSE 15 19 8 10 1016.7 1016.4 0.0
24/02:00am 15.1 10.8 0.9 38 6.1 S 13 17 7 9 1016.9 1016.6 0.0
24/01:30am 15.4 10.7 0.8 37 6.3 S 15 17 8 9 1016.9 1016.6 0.0
24/01:00am 16.1 11.4 1.0 36 6.6 S 15 19 8 10 1016.9 1016.6 0.0
24/12:30am 16.4 12.1 1.3 36 6.7 S 13 17 7 9 1017.0 1016.7 0.0
24/12:00am 16.8 12.2 1.3 35 6.9 S 15 17 8 9 1017.1 1016.9 0.0
 
Date/Time
EST
Temp
°C
App
Temp
°C
Dew
Point
°C
Rel
Hum
%
Delta-T
°C
Wind Press
QNH
hPa
Press
MSL
hPa
Rain since
9am
mm
Dir  Spd
km/h
Gust
km/h
Spd
kts
Gust
kts
23/11:30pm 17.3 12.7 1.7 35 7.0 S 15 19 8 10 1017.2 1017.0 0.0
23/11:00pm 17.8 12.9 2.2 35 7.1 S 17 19 9 10 1017.3 1017.1 0.0
23/10:30pm 16.4 12.3 2.1 38 6.4 S 13 15 7 8 1017.4 1017.2 0.0
23/10:00pm 15.4 11.5 1.2 38 6.2 S 11 13 6 7 1017.3 1017.1 0.0
23/09:30pm 17.4 13.2 1.8 35 7.0 S 13 15 7 8 1017.2 1017.0 0.0
23/09:00pm 19.8 15.8 3.1 33 7.9 SSE 13 17 7 9 1017.2 1017.0 0.0
23/08:30pm 21.1 16.8 3.3 31 8.5 SSE 15 17 8 9 1016.9 1016.6 0.0
23/08:00pm 21.8 17.5 3.0 29 9.0 SSE 15 19 8 10 1016.7 1016.4 0.0
23/07:30pm 22.4 18.1 3.5 29 9.2 SSE 15 17 8 9 1016.4 1016.1 0.0
23/07:00pm 21.1 16.6 1.9 28 8.9 SSE 15 17 8 9 1016.0 1015.7 0.0
23/06:30pm 23.5 19.7 1.8 24 10.3 SSE 11 13 6 7 1015.7 1015.4 0.0
23/06:00pm 27.1 22.7 2.9 21 12.0 SSE 15 19 8 10 1015.3 1015.0 0.0
23/05:30pm 28.1 23.5 1.6 18 12.9 SSE 15 22 8 12 1014.9 1014.6 0.0
23/05:00pm 29.5 24.6 1.9 17 13.6 S 17 24 9 13 1014.6 1014.3 0.0

Other Formats:

Comma delimited format used in spreadsheet applications
http://www.bom.gov.au/fwo/IDQ60801/IDQ60801.94337.axf

JavaScript Object Notation format (JSON) in row-major order
http://www.bom.gov.au/fwo/IDQ60801/IDQ60801.94337.json